Elisalex Schulte — 9V9154 — position and weather

sailwx.info

Track history (hours):
 
Tides and Currents Weather Stations Pressure Air Temp Water Temp Dewpoint Dewpoint Depression Visibility Wind Speed Wind Dir Waves Ship Positions

Elisalex Schulte

Last reported at 2017-Oct-19 11:55 UTC. Time now 2017-Oct-19 18:47 UTC.
Position N 53°09' E 003°31'.

Length 144 m; draft 9.2 m.

Type: Tanker. MMSI: 563052000.

Date/timePositionNaut miles runAvg speedWind from/ knotsBaromVisibWave heightAir tempDewpointWater temp
2017-Oct-19 11:55N 53°09' E 003°31'511.8
2017-Oct-19 11:30N 53°05' E 003°27'1711.5
2017-Oct-19 10:02N 52°49' E 003°16'211.2
2017-Oct-19 09:53N 52°48' E 003°14'31 8.6
2017-Oct-19 06:15N 52°17' E 003°09'312.0
2017-Oct-19 05:59N 52°15' E 003°13'612.2
2017-Oct-19 05:30N 52°12' E 003°22'612.4
2017-Oct-19 04:59N 52°09' E 003°31'612.3
2017-Oct-19 04:30N 52°06' E 003°39'612.1
2017-Oct-19 04:00N 52°04' E 003°49'510.2
2017-Oct-19 03:30N 52°02' E 003°56'4 8.1
2017-Oct-19 03:00N 52°00' E 004°01'4 8.3
2017-Oct-19 02:30N 51°58' E 004°08'3 6.6
2017-Oct-19 02:00N 51°56' E 004°12'3 5.4
2017-Oct-19 01:30N 51°55' E 004°15'2 4.6
2017-Oct-19 01:01N 51°53' E 004°18'1 2.5
2017-Oct-19 00:30N 51°53' E 004°17'0 0.0
2017-Oct-18 23:50N 51°53' E 004°17'0 0.0
2017-Oct-18 23:20N 51°53' E 004°17'0 0.0
2017-Oct-18 23:00N 51°53' E 004°17'0 0.0
2017-Oct-18 22:30N 51°53' E 004°17'0 0.0
2017-Oct-18 22:00N 51°53' E 004°17'0 0.0
2017-Oct-18 21:30N 51°53' E 004°17'0 0.0
2017-Oct-18 21:00N 51°53' E 004°17'0 0.0
2017-Oct-18 20:30N 51°53' E 004°17'0 0.0
2017-Oct-18 20:00N 51°53' E 004°17'0 0.0
2017-Oct-18 19:30N 51°53' E 004°17'0 0.0
2017-Oct-18 19:00N 51°53' E 004°17'0 0.0
2017-Oct-18 18:30N 51°53' E 004°17'0 0.0
2017-Oct-18 18:00N 51°53' E 004°17'0 0.0
2017-Oct-18 17:30N 51°53' E 004°17'0 0.0
2017-Oct-18 16:59N 51°53' E 004°17'0 0.0
2017-Oct-18 16:30N 51°53' E 004°17'0 0.0
2017-Oct-18 16:00N 51°53' E 004°17'0 0.0
2017-Oct-18 15:30N 51°53' E 004°17'0 0.0
2017-Oct-18 15:00N 51°53' E 004°17'0 0.0
2017-Oct-18 14:00N 51°53' E 004°17'0 0.0
2017-Oct-18 13:30N 51°53' E 004°17'0 0.0
2017-Oct-18 13:00N 51°53' E 004°17'0 0.0
2017-Oct-18 12:30N 51°53' E 004°17'0 0.0
2017-Oct-18 12:00N 51°53' E 004°17'0 0.0
2017-Oct-18 11:30N 51°53' E 004°17'0 0.0
2017-Oct-18 11:00N 51°53' E 004°17'0 0.0
2017-Oct-18 10:30N 51°53' E 004°17'0 0.0
2017-Oct-18 10:00N 51°53' E 004°17'0 0.0
2017-Oct-18 09:30N 51°53' E 004°17'0 0.0
2017-Oct-18 09:00N 51°53' E 004°17'0 0.0
2017-Oct-18 08:30N 51°53' E 004°17'0 0.0
2017-Oct-18 08:00N 51°53' E 004°17'0 0.0
2017-Oct-18 07:30N 51°53' E 004°17'0 0.0
2017-Oct-18 07:00N 51°53' E 004°17'0 0.0
2017-Oct-18 06:30N 51°53' E 004°17'0 0.0
2017-Oct-18 06:00N 51°53' E 004°17'0 0.0
2017-Oct-18 05:30N 51°53' E 004°17'0 0.0
2017-Oct-18 05:00N 51°53' E 004°17'0 0.0
2017-Oct-18 04:30N 51°53' E 004°17'0 0.0
2017-Oct-18 04:00N 51°53' E 004°17'0 0.0
2017-Oct-18 03:30N 51°53' E 004°17'0 0.0
2017-Oct-18 03:00N 51°53' E 004°17'0 0.0
2017-Oct-18 02:30N 51°53' E 004°17'0 0.0
2017-Oct-18 02:00N 51°53' E 004°17'0 0.0
2017-Oct-18 01:30N 51°53' E 004°17'0 0.0
2017-Oct-18 01:00N 51°53' E 004°17'0 0.0
2017-Oct-18 00:30N 51°53' E 004°17'0 0.0
2017-Oct-18 00:00N 51°53' E 004°17'0 0.0
2017-Oct-17 23:30N 51°53' E 004°17'0 0.0
2017-Oct-17 23:00N 51°53' E 004°17'0 0.0
2017-Oct-17 22:30N 51°53' E 004°17'0 0.0
2017-Oct-17 22:00N 51°53' E 004°17'0 0.0
2017-Oct-17 21:30N 51°53' E 004°17'0 0.0
2017-Oct-17 21:00N 51°53' E 004°17'0 0.0
2017-Oct-17 20:30N 51°53' E 004°17'0 0.0
2017-Oct-17 20:00N 51°53' E 004°17'0 0.0
2017-Oct-17 19:30N 51°53' E 004°17'0 0.0
2017-Oct-17 19:00N 51°53' E 004°17'0 0.0
2017-Oct-17 18:30N 51°53' E 004°17'0 0.0
2017-Oct-17 18:00N 51°53' E 004°17'0 0.0
2017-Oct-17 17:30N 51°53' E 004°17'0 0.0
2017-Oct-17 17:00N 51°53' E 004°17'0 0.0
2017-Oct-17 16:30N 51°53' E 004°17'0 0.0
2017-Oct-17 16:00N 51°53' E 004°17'0 0.0
2017-Oct-17 15:30N 51°53' E 004°17'0 0.0
2017-Oct-17 15:00N 51°53' E 004°17'0 0.0
2017-Oct-17 14:30N 51°53' E 004°17'0 0.0
2017-Oct-17 14:00N 51°53' E 004°17'0 0.0
2017-Oct-17 13:30N 51°53' E 004°17'0 0.0
2017-Oct-17 13:00N 51°53' E 004°17'0 0.0
2017-Oct-17 12:30N 51°53' E 004°17'0 0.0
2017-Oct-17 12:00N 51°53' E 004°17'0 0.0
2017-Oct-17 11:28N 51°53' E 004°17'0 0.0
2017-Oct-17 11:00N 51°53' E 004°17'1 2.6
2017-Oct-17 10:30N 51°53' E 004°18'3 6.7
2017-Oct-17 10:01N 51°55' E 004°14'4 7.5
2017-Oct-17 09:30N 51°58' E 004°09'3 6.3
2017-Oct-17 09:00N 51°59' E 004°04'4 7.7
2017-Oct-17 08:30N 51°57' E 004°10'2 3.1
2017-Oct-17 07:59N 51°56' E 004°12'0 0.0
2017-Oct-17 07:26N 51°56' E 004°12'0 0.0
2017-Oct-17 07:00N 51°56' E 004°12'0 0.0
2017-Oct-17 06:30N 51°56' E 004°12'0 0.0
2017-Oct-17 06:00N 51°56' E 004°12'0 0.0
2017-Oct-17 05:30N 51°56' E 004°12'0 0.0
2017-Oct-17 05:00N 51°56' E 004°12'0 0.0
2017-Oct-17 04:30N 51°56' E 004°12'0 0.0
2017-Oct-17 04:00N 51°56' E 004°12'0 0.0
2017-Oct-17 03:30N 51°56' E 004°12'0 0.0
2017-Oct-17 03:00N 51°56' E 004°12'0 0.0
2017-Oct-17 02:30N 51°56' E 004°12'0 0.0
2017-Oct-17 02:00N 51°56' E 004°12'0 0.0
2017-Oct-17 01:30N 51°56' E 004°12'0 0.0
2017-Oct-17 01:00N 51°56' E 004°12'0 0.0
2017-Oct-17 00:30N 51°56' E 004°12'0 0.0
2017-Oct-17 00:00N 51°56' E 004°12'0 0.0
2017-Oct-16 23:30N 51°56' E 004°12'0 0.0
2017-Oct-16 23:00N 51°56' E 004°12'0 0.0
2017-Oct-16 22:30N 51°56' E 004°12'0 0.0
2017-Oct-16 22:00N 51°56' E 004°12'0 0.0
2017-Oct-16 21:30N 51°56' E 004°12'0 0.0
2017-Oct-16 21:00N 51°56' E 004°12'0 0.0
2017-Oct-16 20:30N 51°56' E 004°12'0 0.0
2017-Oct-16 20:00N 51°56' E 004°12'0 0.0
2017-Oct-16 19:30N 51°56' E 004°12'0 0.0
2017-Oct-16 19:00N 51°56' E 004°12'0 0.0
2017-Oct-16 18:30N 51°56' E 004°12'0 0.0
2017-Oct-16 18:00N 51°56' E 004°12'0 0.0
2017-Oct-16 17:30N 51°56' E 004°12'0 0.0
2017-Oct-16 17:00N 51°56' E 004°12'0 0.0
2017-Oct-16 16:30N 51°56' E 004°12'0 0.0
2017-Oct-16 16:00N 51°56' E 004°12'0 0.0
2017-Oct-16 15:30N 51°56' E 004°12'0 0.0
2017-Oct-16 15:00N 51°56' E 004°12'0 0.0
2017-Oct-16 14:30N 51°56' E 004°12'0 0.0
2017-Oct-16 13:24N 51°56' E 004°12'0 0.0
2017-Oct-16 13:00N 51°56' E 004°12'0 0.0
2017-Oct-16 12:24N 51°56' E 004°12'0 0.0
2017-Oct-16 12:00N 51°56' E 004°12'0 0.0
2017-Oct-16 11:27N 51°56' E 004°12'0 0.0
2017-Oct-16 10:54N 51°56' E 004°12'0 0.0
2017-Oct-16 10:30N 51°56' E 004°12'0 0.0
2017-Oct-16 10:00N 51°56' E 004°12'0 0.0
2017-Oct-16 09:21N 51°56' E 004°12'0 0.0
2017-Oct-16 09:00N 51°56' E 004°12'0 0.0
2017-Oct-16 08:30N 51°56' E 004°12'0 0.0
2017-Oct-16 08:00N 51°56' E 004°12'0 0.5
2017-Oct-16 07:30N 51°56' E 004°11'2 4.2
2017-Oct-16 07:00N 51°57' E 004°09'4 7.0
2017-Oct-16 06:31N 51°59' E 004°04'4 8.1
2017-Oct-16 06:01N 51°60' E 003°57'510.0
2017-Oct-16 05:30N 51°59' E 003°49'4 7.9
2017-Oct-16 05:00N 51°59' E 003°43'5 9.4
2017-Oct-16 04:31N 51°57' E 003°36'5 9.9
2017-Oct-16 04:01N 51°56' E 003°28'4 8.2
2017-Oct-16 03:30N 51°55' E 003°21'610.9
2017-Oct-16 02:59N 51°53' E 003°13'611.6
2017-Oct-16 02:27N 51°52' E 003°03'611.7
2017-Oct-16 01:54N 51°50' E 002°53'1111.1
2017-Oct-16 00:54N 51°45' E 002°37'512.6
2017-Oct-16 00:30N 51°42' E 002°31'612.9
2017-Oct-16 00:00N 51°37' E 002°25'713.1
2017-Oct-15 23:30N 51°31' E 002°18'613.3
2017-Oct-15 23:01N 51°27' E 002°10'611.9
2017-Oct-15 22:30N 51°21' E 002°08'713.0
2017-Oct-15 22:01N 51°15' E 002°07'713.8
2017-Oct-15 21:30N 51°11' E 001°57'713.9
2017-Oct-15 21:01N 51°08' E 001°48'714.6
2017-Oct-15 20:30N 51°02' E 001°40'815.1
2017-Oct-15 20:00N 50°57' E 001°32'1214.7
2017-Oct-15 19:12N 50°46' E 001°24'314.0
2017-Oct-15 19:00N 50°44' E 001°21'713.4
2017-Oct-15 18:28N 50°39' E 001°14'1413.2
2017-Oct-15 17:24N 50°30' E 000°57'1513.6
2017-Oct-15 16:18N 50°26' E 000°34'513.5
2017-Oct-15 15:55N 50°24' E 000°26'713.4
2017-Oct-15 15:26N 50°22' E 000°16'613.1
2017-Oct-15 15:00N 50°21' E 000°08'1612.5
2017-Oct-15 13:45N 50°16' W 000°16'812.4
2017-Oct-15 13:08N 50°14' W 000°27'3511.0
2017-Oct-15 09:55N 50°05' W 001°21'410.1
2017-Oct-15 09:30N 50°04' W 001°27'1311.1
2017-Oct-15 08:22N 50°00' W 001°46'411.3
2017-Oct-15 07:59N 49°59' W 001°52'1011.9
2017-Oct-15 07:08N 49°56' W 002°07'312.5
2017-Oct-15 06:55N 49°56' W 002°11'612.8
2017-Oct-15 06:28N 49°54' W 002°20'612.8
2017-Oct-15 06:00N 49°53' W 002°29'713.1
2017-Oct-15 05:27N 49°51' W 002°40'613.3
2017-Oct-15 05:00N 49°49' W 002°48'713.4
2017-Oct-15 04:30N 49°47' W 002°58'713.5
2017-Oct-15 04:00N 49°45' W 003°08'713.5
2017-Oct-15 03:30N 49°44' W 003°18'813.2
2017-Oct-15 02:53N 49°41' W 003°31'513.2
2017-Oct-15 02:30N 49°40' W 003°38'713.3
2017-Oct-15 01:58N 49°38' W 003°49'612.9
2017-Oct-15 01:30N 49°37' W 003°58'713.0
2017-Oct-15 00:59N 49°38' W 004°08'613.0
2017-Oct-15 00:29N 49°39' W 004°18'712.8
2017-Oct-14 23:58N 49°40' W 004°28'612.6
2017-Oct-14 23:30N 49°41' W 004°37'612.2
2017-Oct-14 23:00N 49°42' W 004°46'611.8
2017-Oct-14 22:30N 49°43' W 004°55'611.6
2017-Oct-14 22:00N 49°44' W 005°04'811.3
2017-Oct-14 21:17N 49°45' W 005°17'311.2
2017-Oct-14 21:00N 49°46' W 005°21'611.3
2017-Oct-14 20:30N 49°47' W 005°30'611.3
2017-Oct-14 20:00N 49°47' W 005°39'611.3
2017-Oct-14 19:30N 49°48' W 005°47'611.4
2017-Oct-14 18:57N 49°52' W 005°56'511.6
2017-Oct-14 18:29N 49°56' W 006°01'612.3
2017-Oct-14 18:00N 50°02' W 006°01'612.2
2017-Oct-14 17:29N 50°08' W 006°01'712.1
2017-Oct-14 16:55N 50°15' W 006°01'512.0
2017-Oct-14 16:28N 50°20' W 006°01'511.4
2017-Oct-14 16:00N 50°25' W 005°60'611.3
2017-Oct-14 15:26N 50°31' W 005°55'511.3
2017-Oct-14 15:00N 50°36' W 005°53'611.2
2017-Oct-14 14:30N 50°41' W 005°50'611.0
2017-Oct-14 13:57N 50°47' W 005°46'511.1
2017-Oct-14 13:28N 50°52' W 005°43'511.0
2017-Oct-14 13:00N 50°56' W 005°40'510.9
2017-Oct-14 12:30N 51°01' W 005°36'510.9
2017-Oct-14 12:00N 51°07' W 005°34'510.7
2017-Oct-14 11:30N 51°11' W 005°30'611.0
2017-Oct-14 11:00N 51°16' W 005°27'611.2
2017-Oct-14 10:29N 51°22' W 005°23'511.1
2017-Oct-14 10:00N 51°27' W 005°20'611.4
2017-Oct-14 09:30N 51°32' W 005°17'611.2
2017-Oct-14 09:00N 51°37' W 005°13'4 7.5
2017-Oct-14 08:30N 51°40' W 005°10'4 7.2
2017-Oct-14 08:00N 51°42' W 005°05'2 3.1
2017-Oct-14 07:28N 51°42' W 005°02'0 0.0
2017-Oct-14 06:58N 51°42' W 005°02'0 0.0
2017-Oct-14 06:28N 51°42' W 005°02'0 0.0
2017-Oct-14 05:58N 51°42' W 005°02'0 0.0
2017-Oct-14 05:28N 51°42' W 005°02'0 0.0
2017-Oct-14 04:58N 51°42' W 005°02'0 0.0
2017-Oct-14 04:28N 51°42' W 005°02'0 0.0
2017-Oct-14 03:58N 51°42' W 005°02'0 0.0
2017-Oct-14 03:28N 51°42' W 005°02'0 0.0
2017-Oct-14 02:58N 51°42' W 005°02'0 0.0
2017-Oct-14 02:28N 51°42' W 005°02'0 0.0
2017-Oct-14 01:58N 51°42' W 005°02'0 0.0
2017-Oct-14 01:28N 51°42' W 005°02'0 0.0
2017-Oct-14 00:58N 51°42' W 005°02'0 0.0
2017-Oct-14 00:28N 51°42' W 005°02'0 0.0
2017-Oct-13 23:58N 51°42' W 005°02'0 0.0
2017-Oct-13 23:28N 51°42' W 005°02'0 0.0
2017-Oct-13 22:58N 51°42' W 005°02'0 0.0
2017-Oct-13 22:28N 51°42' W 005°02'0 0.0
2017-Oct-13 21:58N 51°42' W 005°02'0 0.0
2017-Oct-13 21:28N 51°42' W 005°02'0 0.0
2017-Oct-13 20:58N 51°42' W 005°02'0 0.0
2017-Oct-13 20:28N 51°42' W 005°02'0 0.0
2017-Oct-13 19:58N 51°42' W 005°02'0 0.0
2017-Oct-13 19:28N 51°42' W 005°02'0 0.0
2017-Oct-13 18:58N 51°42' W 005°02'0 0.0
2017-Oct-13 18:30N 51°42' W 005°02'0 0.0
2017-Oct-13 17:58N 51°42' W 005°02'0 0.0
2017-Oct-13 17:28N 51°42' W 005°02'0 0.0
2017-Oct-13 16:57N 51°42' W 005°02'0 0.0
2017-Oct-13 16:28N 51°42' W 005°02'0 0.0
2017-Oct-13 15:58N 51°42' W 005°02'0 0.0
2017-Oct-13 15:28N 51°42' W 005°02'0 0.0
2017-Oct-13 14:58N 51°42' W 005°02'0 0.0
2017-Oct-13 14:28N 51°42' W 005°02'0 0.0
2017-Oct-13 13:58N 51°42' W 005°02'0 0.0
2017-Oct-13 13:28N 51°42' W 005°02'0 0.0
2017-Oct-13 13:01N 51°42' W 005°02'0 0.0
2017-Oct-13 12:28N 51°42' W 005°02'0 0.0
2017-Oct-13 12:01N 51°42' W 005°02'0 0.0
2017-Oct-13 11:28N 51°42' W 005°02'0 0.0
2017-Oct-13 10:58N 51°42' W 005°02'0 0.0
2017-Oct-13 10:28N 51°42' W 005°02'0 0.0
2017-Oct-13 09:58N 51°42' W 005°02'0 0.0
2017-Oct-13 09:28N 51°42' W 005°02'0 0.0
2017-Oct-13 08:58N 51°42' W 005°02'0 0.0
2017-Oct-13 08:28N 51°42' W 005°02'0 0.0
2017-Oct-13 08:01N 51°42' W 005°02'0 0.0
2017-Oct-13 07:28N 51°42' W 005°02'0 0.0
2017-Oct-13 07:01N 51°42' W 005°02'0 0.3
2017-Oct-13 06:31N 51°42' W 005°02'3 6.7
2017-Oct-13 06:00N 51°42' W 005°07'5 9.6
2017-Oct-13 05:30N 51°39' W 005°13'2 4.8
2017-Oct-13 05:00N 51°36' W 005°14'2 4.8
2017-Oct-13 04:30N 51°34' W 005°15'4 7.1
2017-Oct-13 04:00N 51°31' W 005°15'1 2.0
2017-Oct-13 03:30N 51°30' W 005°14'0 0.1
2017-Oct-13 03:00N 51°30' W 005°14'0 0.1
2017-Oct-13 02:30N 51°30' W 005°14'0 0.0
2017-Oct-13 02:00N 51°30' W 005°14'0 0.0
2017-Oct-13 01:30N 51°30' W 005°14'0 0.0
2017-Oct-13 01:00N 51°30' W 005°14'0 0.0
2017-Oct-13 00:30N 51°30' W 005°14'0 0.0
2017-Oct-13 00:00N 51°30' W 005°14'0 0.0
2017-Oct-12 23:30N 51°30' W 005°14'0 0.0
2017-Oct-12 23:00N 51°30' W 005°14'0 0.0
2017-Oct-12 22:30N 51°30' W 005°14'0 0.1
2017-Oct-12 22:00N 51°30' W 005°14'0 0.0
2017-Oct-12 21:30N 51°30' W 005°14'0 0.0
2017-Oct-12 21:00N 51°30' W 005°14'0 0.0
2017-Oct-12 20:30N 51°30' W 005°14'0 0.0
2017-Oct-12 20:00N 51°30' W 005°14'0 0.0
2017-Oct-12 19:30N 51°30' W 005°14'0 0.0
2017-Oct-12 19:00N 51°30' W 005°14'0 0.0
2017-Oct-12 18:30N 51°30' W 005°14'0 0.0
2017-Oct-12 18:00N 51°30' W 005°14'0 0.0
2017-Oct-12 17:30N 51°30' W 005°14'0 0.0
2017-Oct-12 17:00N 51°30' W 005°14'0 0.0
2017-Oct-12 16:30N 51°30' W 005°14'0 0.1
2017-Oct-12 16:00N 51°30' W 005°14'0 0.0
2017-Oct-12 15:30N 51°30' W 005°14'0 0.0
2017-Oct-12 14:57N 51°30' W 005°14'0 0.0
2017-Oct-12 14:30N 51°30' W 005°14'0 0.0
2017-Oct-12 13:57N 51°30' W 005°14'0 0.0
2017-Oct-12 13:30N 51°30' W 005°14'0 0.0
2017-Oct-12 13:00N 51°30' W 005°14'0 0.0
2017-Oct-12 12:27N 51°30' W 005°14'0 0.0
2017-Oct-12 11:54N 51°30' W 005°14'0 0.1
2017-Oct-12 11:30N 51°30' W 005°14'0 0.1
2017-Oct-12 11:00N 51°30' W 005°14'0 0.0
2017-Oct-12 10:30N 51°30' W 005°14'0 0.1
2017-Oct-12 10:00N 51°30' W 005°14'0 0.0
2017-Oct-12 09:30N 51°30' W 005°14'1 1.1
2017-Oct-12 09:00N 51°29' W 005°14'510.4
2017-Oct-12 08:30N 51°25' W 005°20'714.2
2017-Oct-12 07:59N 51°19' W 005°24'714.2
2017-Oct-12 07:30N 51°12' W 005°28'814.1
2017-Oct-12 06:57N 51°04' W 005°32'2114.0
2017-Oct-12 05:27N 50°45' W 005°43'613.9
2017-Oct-12 05:00N 50°39' W 005°46'913.8
2017-Oct-12 04:20N 50°30' W 005°51'513.4
2017-Oct-12 03:57N 50°25' W 005°53'713.1
2017-Oct-12 03:26N 50°19' W 005°53'69 9.3
2017-Oct-11 20:00N 49°53' W 004°13'612.3
2017-Oct-11 19:29N 49°54' W 004°03'612.4
2017-Oct-11 19:00N 49°55' W 003°54'612.5
2017-Oct-11 18:30N 49°56' W 003°44'612.6
2017-Oct-11 18:00N 49°56' W 003°35'612.8
2017-Oct-11 17:30N 49°57' W 003°25'612.9
2017-Oct-11 17:00N 49°58' W 003°15'19611.5
2017-Oct-11 00:00N 51°07' E 001°34'714.6
2017-Oct-10 23:30N 51°11' E 001°43'714.7
2017-Oct-10 23:00N 51°17' E 001°50'714.7
2017-Oct-10 22:30N 51°24' E 001°55'714.2
2017-Oct-10 22:00N 51°30' E 002°02'713.4
2017-Oct-10 21:30N 51°35' E 002°09'5111.2
2017-Oct-10 16:57N 52°03' E 003°18'511.6
2017-Oct-10 16:30N 52°03' E 003°26'611.6
2017-Oct-10 16:00N 52°04' E 003°36'611.5
2017-Oct-10 15:30N 52°04' E 003°45'510.4
2017-Oct-10 15:00N 52°03' E 003°53'7 7.4
2017-Oct-10 14:00N 51°59' E 004°04'4 8.5
2017-Oct-10 13:30N 51°57' E 004°09'3 5.0
2017-Oct-10 12:59N 51°55' E 004°12'0 0.0
2017-Oct-10 12:29N 51°55' E 004°12'0 0.0
2017-Oct-10 12:00N 51°55' E 004°12'0 0.0
2017-Oct-10 11:30N 51°55' E 004°12'0 0.0
2017-Oct-10 11:00N 51°55' E 004°12'0 0.0
2017-Oct-10 10:31N 51°55' E 004°12'0 0.0
2017-Oct-10 10:00N 51°55' E 004°12'0 0.0
2017-Oct-10 09:31N 51°55' E 004°12'0 0.0
2017-Oct-10 09:00N 51°55' E 004°12'0 0.0
2017-Oct-10 08:30N 51°55' E 004°12'0 0.0
2017-Oct-10 08:01N 51°55' E 004°12'0 0.0
2017-Oct-10 07:30N 51°55' E 004°12'0 0.0
2017-Oct-10 07:00N 51°55' E 004°12'0 0.0
2017-Oct-10 06:30N 51°55' E 004°12'0 0.0
2017-Oct-10 06:00N 51°55' E 004°12'0 0.0
2017-Oct-10 05:31N 51°55' E 004°12'0 0.0
2017-Oct-10 05:00N 51°55' E 004°12'0 0.0
2017-Oct-10 04:30N 51°55' E 004°12'0 0.0
2017-Oct-10 04:00N 51°55' E 004°12'0 0.0
2017-Oct-10 03:30N 51°55' E 004°12'0 0.0
2017-Oct-10 03:00N 51°55' E 004°12'0 0.0
2017-Oct-10 02:31N 51°55' E 004°12'0 0.0
2017-Oct-10 02:01N 51°55' E 004°12'0 0.0
2017-Oct-10 01:31N 51°55' E 004°12'0 0.0
2017-Oct-10 01:01N 51°55' E 004°12'0 0.0
2017-Oct-10 00:30N 51°55' E 004°12'0 0.0
2017-Oct-10 00:00N 51°55' E 004°12'0 0.0
2017-Oct-09 23:30N 51°55' E 004°12'0 0.0
2017-Oct-09 23:00N 51°55' E 004°12'0 0.0
2017-Oct-09 22:30N 51°55' E 004°12'0 0.0
2017-Oct-09 22:00N 51°55' E 004°12'0 0.0
2017-Oct-09 21:30N 51°55' E 004°12'0 0.0
2017-Oct-09 21:01N 51°55' E 004°12'0 0.0
2017-Oct-09 20:26N 51°55' E 004°12'0 0.0
2017-Oct-09 19:44N 51°55' E 004°12'0 0.0
2017-Oct-09 19:30N 51°55' E 004°12'0 0.5
2017-Oct-09 19:00N 51°55' E 004°12'1 3.0
2017-Oct-09 18:30N 51°56' E 004°11'3 6.9
2017-Oct-09 18:00N 51°58' E 004°06'4 8.6
2017-Oct-09 17:30N 51°60' E 003°60'510.5
2017-Oct-09 17:00N 52°01' E 003°51'4 6.8
2017-Oct-09 16:29N 52°01' E 003°46'  
Track history (hours):
 
Tides and Currents Weather Stations Pressure Air Temp Water Temp Dewpoint Dewpoint Depression Visibility Wind Speed Wind Dir Waves Ship Positions

Elisalex Schulte

Last reported at 2017-Oct-19 11:55 UTC. Time now 2017-Oct-19 18:47 UTC.
Position N 53°09' E 003°31'.

Length 144 m; draft 9.2 m.

Type: Tanker. MMSI: 563052000.

Date/timePositionNaut miles runAvg speedWind from/ knotsBaromVisibWave heightAir tempDewpointWater temp
2017-Oct-19 11:55N 53°09' E 003°31'511.8
2017-Oct-19 11:30N 53°05' E 003°27'1711.5
2017-Oct-19 10:02N 52°49' E 003°16'211.2
2017-Oct-19 09:53N 52°48' E 003°14'31 8.6
2017-Oct-19 06:15N 52°17' E 003°09'312.0
2017-Oct-19 05:59N 52°15' E 003°13'612.2
2017-Oct-19 05:30N 52°12' E 003°22'612.4
2017-Oct-19 04:59N 52°09' E 003°31'612.3
2017-Oct-19 04:30N 52°06' E 003°39'612.1
2017-Oct-19 04:00N 52°04' E 003°49'510.2
2017-Oct-19 03:30N 52°02' E 003°56'4 8.1
2017-Oct-19 03:00N 52°00' E 004°01'4 8.3
2017-Oct-19 02:30N 51°58' E 004°08'3 6.6
2017-Oct-19 02:00N 51°56' E 004°12'3 5.4
2017-Oct-19 01:30N 51°55' E 004°15'2 4.6
2017-Oct-19 01:01N 51°53' E 004°18'1 2.5
2017-Oct-19 00:30N 51°53' E 004°17'0 0.0
2017-Oct-18 23:50N 51°53' E 004°17'0 0.0
2017-Oct-18 23:20N 51°53' E 004°17'0 0.0
2017-Oct-18 23:00N 51°53' E 004°17'0 0.0
2017-Oct-18 22:30N 51°53' E 004°17'0 0.0
2017-Oct-18 22:00N 51°53' E 004°17'0 0.0
2017-Oct-18 21:30N 51°53' E 004°17'0 0.0
2017-Oct-18 21:00N 51°53' E 004°17'0 0.0
2017-Oct-18 20:30N 51°53' E 004°17'0 0.0
2017-Oct-18 20:00N 51°53' E 004°17'0 0.0
2017-Oct-18 19:30N 51°53' E 004°17'0 0.0
2017-Oct-18 19:00N 51°53' E 004°17'0 0.0
2017-Oct-18 18:30N 51°53' E 004°17'0 0.0
2017-Oct-18 18:00N 51°53' E 004°17'0 0.0
2017-Oct-18 17:30N 51°53' E 004°17'0 0.0
2017-Oct-18 16:59N 51°53' E 004°17'0 0.0
2017-Oct-18 16:30N 51°53' E 004°17'0 0.0
2017-Oct-18 16:00N 51°53' E 004°17'0 0.0
2017-Oct-18 15:30N 51°53' E 004°17'0 0.0
2017-Oct-18 15:00N 51°53' E 004°17'0 0.0
2017-Oct-18 14:00N 51°53' E 004°17'0 0.0
2017-Oct-18 13:30N 51°53' E 004°17'0 0.0
2017-Oct-18 13:00N 51°53' E 004°17'0 0.0
2017-Oct-18 12:30N 51°53' E 004°17'0 0.0
2017-Oct-18 12:00N 51°53' E 004°17'0 0.0
2017-Oct-18 11:30N 51°53' E 004°17'0 0.0
2017-Oct-18 11:00N 51°53' E 004°17'0 0.0
2017-Oct-18 10:30N 51°53' E 004°17'0 0.0
2017-Oct-18 10:00N 51°53' E 004°17'0 0.0
2017-Oct-18 09:30N 51°53' E 004°17'0 0.0
2017-Oct-18 09:00N 51°53' E 004°17'0 0.0
2017-Oct-18 08:30N 51°53' E 004°17'0 0.0
2017-Oct-18 08:00N 51°53' E 004°17'0 0.0
2017-Oct-18 07:30N 51°53' E 004°17'0 0.0
2017-Oct-18 07:00N 51°53' E 004°17'0 0.0
2017-Oct-18 06:30N 51°53' E 004°17'0 0.0
2017-Oct-18 06:00N 51°53' E 004°17'0 0.0
2017-Oct-18 05:30N 51°53' E 004°17'0 0.0
2017-Oct-18 05:00N 51°53' E 004°17'0 0.0
2017-Oct-18 04:30N 51°53' E 004°17'0 0.0
2017-Oct-18 04:00N 51°53' E 004°17'0 0.0
2017-Oct-18 03:30N 51°53' E 004°17'0 0.0
2017-Oct-18 03:00N 51°53' E 004°17'0 0.0
2017-Oct-18 02:30N 51°53' E 004°17'0 0.0
2017-Oct-18 02:00N 51°53' E 004°17'0 0.0
2017-Oct-18 01:30N 51°53' E 004°17'0 0.0
2017-Oct-18 01:00N 51°53' E 004°17'0 0.0
2017-Oct-18 00:30N 51°53' E 004°17'0 0.0
2017-Oct-18 00:00N 51°53' E 004°17'0 0.0
2017-Oct-17 23:30N 51°53' E 004°17'0 0.0
2017-Oct-17 23:00N 51°53' E 004°17'0 0.0
2017-Oct-17 22:30N 51°53' E 004°17'0 0.0
2017-Oct-17 22:00N 51°53' E 004°17'0 0.0
2017-Oct-17 21:30N 51°53' E 004°17'0 0.0
2017-Oct-17 21:00N 51°53' E 004°17'0 0.0
2017-Oct-17 20:30N 51°53' E 004°17'0 0.0
2017-Oct-17 20:00N 51°53' E 004°17'0 0.0
2017-Oct-17 19:30N 51°53' E 004°17'0 0.0
2017-Oct-17 19:00N 51°53' E 004°17'0 0.0
2017-Oct-17 18:30N 51°53' E 004°17'0 0.0
2017-Oct-17 18:00N 51°53' E 004°17'0 0.0
2017-Oct-17 17:30N 51°53' E 004°17'0 0.0
2017-Oct-17 17:00N 51°53' E 004°17'0 0.0
2017-Oct-17 16:30N 51°53' E 004°17'0 0.0
2017-Oct-17 16:00N 51°53' E 004°17'0 0.0
2017-Oct-17 15:30N 51°53' E 004°17'0 0.0
2017-Oct-17 15:00N 51°53' E 004°17'0 0.0
2017-Oct-17 14:30N 51°53' E 004°17'0 0.0
2017-Oct-17 14:00N 51°53' E 004°17'0 0.0
2017-Oct-17 13:30N 51°53' E 004°17'0 0.0
2017-Oct-17 13:00N 51°53' E 004°17'0 0.0
2017-Oct-17 12:30N 51°53' E 004°17'0 0.0
2017-Oct-17 12:00N 51°53' E 004°17'0 0.0
2017-Oct-17 11:28N 51°53' E 004°17'0 0.0
2017-Oct-17 11:00N 51°53' E 004°17'1 2.6
2017-Oct-17 10:30N 51°53' E 004°18'3 6.7
2017-Oct-17 10:01N 51°55' E 004°14'4 7.5
2017-Oct-17 09:30N 51°58' E 004°09'3 6.3
2017-Oct-17 09:00N 51°59' E 004°04'4 7.7
2017-Oct-17 08:30N 51°57' E 004°10'2 3.1
2017-Oct-17 07:59N 51°56' E 004°12'0 0.0
2017-Oct-17 07:26N 51°56' E 004°12'0 0.0
2017-Oct-17 07:00N 51°56' E 004°12'0 0.0
2017-Oct-17 06:30N 51°56' E 004°12'0 0.0
2017-Oct-17 06:00N 51°56' E 004°12'0 0.0
2017-Oct-17 05:30N 51°56' E 004°12'0 0.0
2017-Oct-17 05:00N 51°56' E 004°12'0 0.0
2017-Oct-17 04:30N 51°56' E 004°12'0 0.0
2017-Oct-17 04:00N 51°56' E 004°12'0 0.0
2017-Oct-17 03:30N 51°56' E 004°12'0 0.0
2017-Oct-17 03:00N 51°56' E 004°12'0 0.0
2017-Oct-17 02:30N 51°56' E 004°12'0 0.0
2017-Oct-17 02:00N 51°56' E 004°12'0 0.0
2017-Oct-17 01:30N 51°56' E 004°12'0 0.0
2017-Oct-17 01:00N 51°56' E 004°12'0 0.0
2017-Oct-17 00:30N 51°56' E 004°12'0 0.0
2017-Oct-17 00:00N 51°56' E 004°12'0 0.0
2017-Oct-16 23:30N 51°56' E 004°12'0 0.0
2017-Oct-16 23:00N 51°56' E 004°12'0 0.0
2017-Oct-16 22:30N 51°56' E 004°12'0 0.0
2017-Oct-16 22:00N 51°56' E 004°12'0 0.0
2017-Oct-16 21:30N 51°56' E 004°12'0 0.0
2017-Oct-16 21:00N 51°56' E 004°12'0 0.0
2017-Oct-16 20:30N 51°56' E 004°12'0 0.0
2017-Oct-16 20:00N 51°56' E 004°12'0 0.0
2017-Oct-16 19:30N 51°56' E 004°12'0 0.0
2017-Oct-16 19:00N 51°56' E 004°12'0 0.0
2017-Oct-16 18:30N 51°56' E 004°12'0 0.0
2017-Oct-16 18:00N 51°56' E 004°12'0 0.0
2017-Oct-16 17:30N 51°56' E 004°12'0 0.0
2017-Oct-16 17:00N 51°56' E 004°12'0 0.0
2017-Oct-16 16:30N 51°56' E 004°12'0 0.0
2017-Oct-16 16:00N 51°56' E 004°12'0 0.0
2017-Oct-16 15:30N 51°56' E 004°12'0 0.0
2017-Oct-16 15:00N 51°56' E 004°12'0 0.0
2017-Oct-16 14:30N 51°56' E 004°12'0 0.0
2017-Oct-16 13:24N 51°56' E 004°12'0 0.0
2017-Oct-16 13:00N 51°56' E 004°12'0 0.0
2017-Oct-16 12:24N 51°56' E 004°12'0 0.0
2017-Oct-16 12:00N 51°56' E 004°12'0 0.0
2017-Oct-16 11:27N 51°56' E 004°12'0 0.0
2017-Oct-16 10:54N 51°56' E 004°12'0 0.0
2017-Oct-16 10:30N 51°56' E 004°12'0 0.0
2017-Oct-16 10:00N 51°56' E 004°12'0 0.0
2017-Oct-16 09:21N 51°56' E 004°12'0 0.0
2017-Oct-16 09:00N 51°56' E 004°12'0 0.0
2017-Oct-16 08:30N 51°56' E 004°12'0 0.0
2017-Oct-16 08:00N 51°56' E 004°12'0 0.5
2017-Oct-16 07:30N 51°56' E 004°11'2 4.2
2017-Oct-16 07:00N 51°57' E 004°09'4 7.0
2017-Oct-16 06:31N 51°59' E 004°04'4 8.1
2017-Oct-16 06:01N 51°60' E 003°57'510.0
2017-Oct-16 05:30N 51°59' E 003°49'4 7.9
2017-Oct-16 05:00N 51°59' E 003°43'5 9.4
2017-Oct-16 04:31N 51°57' E 003°36'5 9.9
2017-Oct-16 04:01N 51°56' E 003°28'4 8.2
2017-Oct-16 03:30N 51°55' E 003°21'610.9
2017-Oct-16 02:59N 51°53' E 003°13'611.6
2017-Oct-16 02:27N 51°52' E 003°03'611.7
2017-Oct-16 01:54N 51°50' E 002°53'1111.1
2017-Oct-16 00:54N 51°45' E 002°37'512.6
2017-Oct-16 00:30N 51°42' E 002°31'612.9
2017-Oct-16 00:00N 51°37' E 002°25'713.1
2017-Oct-15 23:30N 51°31' E 002°18'613.3
2017-Oct-15 23:01N 51°27' E 002°10'611.9
2017-Oct-15 22:30N 51°21' E 002°08'713.0
2017-Oct-15 22:01N 51°15' E 002°07'713.8
2017-Oct-15 21:30N 51°11' E 001°57'713.9
2017-Oct-15 21:01N 51°08' E 001°48'714.6
2017-Oct-15 20:30N 51°02' E 001°40'815.1
2017-Oct-15 20:00N 50°57' E 001°32'1214.7
2017-Oct-15 19:12N 50°46' E 001°24'314.0
2017-Oct-15 19:00N 50°44' E 001°21'713.4
2017-Oct-15 18:28N 50°39' E 001°14'1413.2
2017-Oct-15 17:24N 50°30' E 000°57'1513.6
2017-Oct-15 16:18N 50°26' E 000°34'513.5
2017-Oct-15 15:55N 50°24' E 000°26'713.4
2017-Oct-15 15:26N 50°22' E 000°16'613.1
2017-Oct-15 15:00N 50°21' E 000°08'1612.5
2017-Oct-15 13:45N 50°16' W 000°16'812.4
2017-Oct-15 13:08N 50°14' W 000°27'3511.0
2017-Oct-15 09:55N 50°05' W 001°21'410.1
2017-Oct-15 09:30N 50°04' W 001°27'1311.1
2017-Oct-15 08:22N 50°00' W 001°46'411.3
2017-Oct-15 07:59N 49°59' W 001°52'1011.9
2017-Oct-15 07:08N 49°56' W 002°07'312.5
2017-Oct-15 06:55N 49°56' W 002°11'612.8
2017-Oct-15 06:28N 49°54' W 002°20'612.8
2017-Oct-15 06:00N 49°53' W 002°29'713.1
2017-Oct-15 05:27N 49°51' W 002°40'613.3
2017-Oct-15 05:00N 49°49' W 002°48'713.4
2017-Oct-15 04:30N 49°47' W 002°58'713.5
2017-Oct-15 04:00N 49°45' W 003°08'713.5
2017-Oct-15 03:30N 49°44' W 003°18'813.2
2017-Oct-15 02:53N 49°41' W 003°31'513.2
2017-Oct-15 02:30N 49°40' W 003°38'713.3
2017-Oct-15 01:58N 49°38' W 003°49'612.9
2017-Oct-15 01:30N 49°37' W 003°58'713.0
2017-Oct-15 00:59N 49°38' W 004°08'613.0
2017-Oct-15 00:29N 49°39' W 004°18'712.8
2017-Oct-14 23:58N 49°40' W 004°28'612.6
2017-Oct-14 23:30N 49°41' W 004°37'612.2
2017-Oct-14 23:00N 49°42' W 004°46'611.8
2017-Oct-14 22:30N 49°43' W 004°55'611.6
2017-Oct-14 22:00N 49°44' W 005°04'811.3
2017-Oct-14 21:17N 49°45' W 005°17'311.2
2017-Oct-14 21:00N 49°46' W 005°21'611.3
2017-Oct-14 20:30N 49°47' W 005°30'611.3
2017-Oct-14 20:00N 49°47' W 005°39'611.3
2017-Oct-14 19:30N 49°48' W 005°47'611.4
2017-Oct-14 18:57N 49°52' W 005°56'511.6
2017-Oct-14 18:29N 49°56' W 006°01'612.3
2017-Oct-14 18:00N 50°02' W 006°01'612.2
2017-Oct-14 17:29N 50°08' W 006°01'712.1
2017-Oct-14 16:55N 50°15' W 006°01'512.0
2017-Oct-14 16:28N 50°20' W 006°01'511.4
2017-Oct-14 16:00N 50°25' W 005°60'611.3
2017-Oct-14 15:26N 50°31' W 005°55'511.3
2017-Oct-14 15:00N 50°36' W 005°53'611.2
2017-Oct-14 14:30N 50°41' W 005°50'611.0
2017-Oct-14 13:57N 50°47' W 005°46'511.1
2017-Oct-14 13:28N 50°52' W 005°43'511.0
2017-Oct-14 13:00N 50°56' W 005°40'510.9
2017-Oct-14 12:30N 51°01' W 005°36'510.9
2017-Oct-14 12:00N 51°07' W 005°34'510.7
2017-Oct-14 11:30N 51°11' W 005°30'611.0
2017-Oct-14 11:00N 51°16' W 005°27'611.2
2017-Oct-14 10:29N 51°22' W 005°23'511.1
2017-Oct-14 10:00N 51°27' W 005°20'611.4
2017-Oct-14 09:30N 51°32' W 005°17'611.2
2017-Oct-14 09:00N 51°37' W 005°13'4 7.5
2017-Oct-14 08:30N 51°40' W 005°10'4 7.2
2017-Oct-14 08:00N 51°42' W 005°05'2 3.1
2017-Oct-14 07:28N 51°42' W 005°02'0 0.0
2017-Oct-14 06:58N 51°42' W 005°02'0 0.0
2017-Oct-14 06:28N 51°42' W 005°02'0 0.0
2017-Oct-14 05:58N 51°42' W 005°02'0 0.0
2017-Oct-14 05:28N 51°42' W 005°02'0 0.0
2017-Oct-14 04:58N 51°42' W 005°02'0 0.0
2017-Oct-14 04:28N 51°42' W 005°02'0 0.0
2017-Oct-14 03:58N 51°42' W 005°02'0 0.0
2017-Oct-14 03:28N 51°42' W 005°02'0 0.0
2017-Oct-14 02:58N 51°42' W 005°02'0 0.0
2017-Oct-14 02:28N 51°42' W 005°02'0 0.0
2017-Oct-14 01:58N 51°42' W 005°02'0 0.0
2017-Oct-14 01:28N 51°42' W 005°02'0 0.0
2017-Oct-14 00:58N 51°42' W 005°02'0 0.0
2017-Oct-14 00:28N 51°42' W 005°02'0 0.0
2017-Oct-13 23:58N 51°42' W 005°02'0 0.0
2017-Oct-13 23:28N 51°42' W 005°02'0 0.0
2017-Oct-13 22:58N 51°42' W 005°02'0 0.0
2017-Oct-13 22:28N 51°42' W 005°02'0 0.0
2017-Oct-13 21:58N 51°42' W 005°02'0 0.0
2017-Oct-13 21:28N 51°42' W 005°02'0 0.0
2017-Oct-13 20:58N 51°42' W 005°02'0 0.0
2017-Oct-13 20:28N 51°42' W 005°02'0 0.0
2017-Oct-13 19:58N 51°42' W 005°02'0 0.0
2017-Oct-13 19:28N 51°42' W 005°02'0 0.0
2017-Oct-13 18:58N 51°42' W 005°02'0 0.0
2017-Oct-13 18:30N 51°42' W 005°02'0 0.0
2017-Oct-13 17:58N 51°42' W 005°02'0 0.0
2017-Oct-13 17:28N 51°42' W 005°02'0 0.0
2017-Oct-13 16:57N 51°42' W 005°02'0 0.0
2017-Oct-13 16:28N 51°42' W 005°02'0 0.0
2017-Oct-13 15:58N 51°42' W 005°02'0 0.0
2017-Oct-13 15:28N 51°42' W 005°02'0 0.0
2017-Oct-13 14:58N 51°42' W 005°02'0 0.0
2017-Oct-13 14:28N 51°42' W 005°02'0 0.0
2017-Oct-13 13:58N 51°42' W 005°02'0 0.0
2017-Oct-13 13:28N 51°42' W 005°02'0 0.0
2017-Oct-13 13:01N 51°42' W 005°02'0 0.0
2017-Oct-13 12:28N 51°42' W 005°02'0 0.0
2017-Oct-13 12:01N 51°42' W 005°02'0 0.0
2017-Oct-13 11:28N 51°42' W 005°02'0 0.0
2017-Oct-13 10:58N 51°42' W 005°02'0 0.0
2017-Oct-13 10:28N 51°42' W 005°02'0 0.0
2017-Oct-13 09:58N 51°42' W 005°02'0 0.0
2017-Oct-13 09:28N 51°42' W 005°02'0 0.0
2017-Oct-13 08:58N 51°42' W 005°02'0 0.0
2017-Oct-13 08:28N 51°42' W 005°02'0 0.0
2017-Oct-13 08:01N 51°42' W 005°02'0 0.0
2017-Oct-13 07:28N 51°42' W 005°02'0 0.0
2017-Oct-13 07:01N 51°42' W 005°02'0 0.3
2017-Oct-13 06:31N 51°42' W 005°02'3 6.7
2017-Oct-13 06:00N 51°42' W 005°07'5 9.6
2017-Oct-13 05:30N 51°39' W 005°13'2 4.8
2017-Oct-13 05:00N 51°36' W 005°14'2 4.8
2017-Oct-13 04:30N 51°34' W 005°15'4 7.1
2017-Oct-13 04:00N 51°31' W 005°15'1 2.0
2017-Oct-13 03:30N 51°30' W 005°14'0 0.1
2017-Oct-13 03:00N 51°30' W 005°14'0 0.1
2017-Oct-13 02:30N 51°30' W 005°14'0 0.0
2017-Oct-13 02:00N 51°30' W 005°14'0 0.0
2017-Oct-13 01:30N 51°30' W 005°14'0 0.0
2017-Oct-13 01:00N 51°30' W 005°14'0 0.0
2017-Oct-13 00:30N 51°30' W 005°14'0 0.0
2017-Oct-13 00:00N 51°30' W 005°14'0 0.0
2017-Oct-12 23:30N 51°30' W 005°14'0 0.0
2017-Oct-12 23:00N 51°30' W 005°14'0 0.0
2017-Oct-12 22:30N 51°30' W 005°14'0 0.1
2017-Oct-12 22:00N 51°30' W 005°14'0 0.0
2017-Oct-12 21:30N 51°30' W 005°14'0 0.0
2017-Oct-12 21:00N 51°30' W 005°14'0 0.0
2017-Oct-12 20:30N 51°30' W 005°14'0 0.0
2017-Oct-12 20:00N 51°30' W 005°14'0 0.0
2017-Oct-12 19:30N 51°30' W 005°14'0 0.0
2017-Oct-12 19:00N 51°30' W 005°14'0 0.0
2017-Oct-12 18:30N 51°30' W 005°14'0 0.0
2017-Oct-12 18:00N 51°30' W 005°14'0 0.0
2017-Oct-12 17:30N 51°30' W 005°14'0 0.0
2017-Oct-12 17:00N 51°30' W 005°14'0 0.0
2017-Oct-12 16:30N 51°30' W 005°14'0 0.1
2017-Oct-12 16:00N 51°30' W 005°14'0 0.0
2017-Oct-12 15:30N 51°30' W 005°14'0 0.0
2017-Oct-12 14:57N 51°30' W 005°14'0 0.0
2017-Oct-12 14:30N 51°30' W 005°14'0 0.0
2017-Oct-12 13:57N 51°30' W 005°14'0 0.0
2017-Oct-12 13:30N 51°30' W 005°14'0 0.0
2017-Oct-12 13:00N 51°30' W 005°14'0 0.0
2017-Oct-12 12:27N 51°30' W 005°14'0 0.0
2017-Oct-12 11:54N 51°30' W 005°14'0 0.1
2017-Oct-12 11:30N 51°30' W 005°14'0 0.1
2017-Oct-12 11:00N 51°30' W 005°14'0 0.0
2017-Oct-12 10:30N 51°30' W 005°14'0 0.1
2017-Oct-12 10:00N 51°30' W 005°14'0 0.0
2017-Oct-12 09:30N 51°30' W 005°14'1 1.1
2017-Oct-12 09:00N 51°29' W 005°14'510.4
2017-Oct-12 08:30N 51°25' W 005°20'714.2
2017-Oct-12 07:59N 51°19' W 005°24'714.2
2017-Oct-12 07:30N 51°12' W 005°28'814.1
2017-Oct-12 06:57N 51°04' W 005°32'2114.0
2017-Oct-12 05:27N 50°45' W 005°43'613.9
2017-Oct-12 05:00N 50°39' W 005°46'913.8
2017-Oct-12 04:20N 50°30' W 005°51'513.4
2017-Oct-12 03:57N 50°25' W 005°53'713.1
2017-Oct-12 03:26N 50°19' W 005°53'69 9.3
2017-Oct-11 20:00N 49°53' W 004°13'612.3
2017-Oct-11 19:29N 49°54' W 004°03'612.4
2017-Oct-11 19:00N 49°55' W 003°54'612.5
2017-Oct-11 18:30N 49°56' W 003°44'612.6
2017-Oct-11 18:00N 49°56' W 003°35'612.8
2017-Oct-11 17:30N 49°57' W 003°25'612.9
2017-Oct-11 17:00N 49°58' W 003°15'19611.5
2017-Oct-11 00:00N 51°07' E 001°34'714.6
2017-Oct-10 23:30N 51°11' E 001°43'714.7
2017-Oct-10 23:00N 51°17' E 001°50'714.7
2017-Oct-10 22:30N 51°24' E 001°55'714.2
2017-Oct-10 22:00N 51°30' E 002°02'713.4
2017-Oct-10 21:30N 51°35' E 002°09'5111.2
2017-Oct-10 16:57N 52°03' E 003°18'511.6
2017-Oct-10 16:30N 52°03' E 003°26'611.6
2017-Oct-10 16:00N 52°04' E 003°36'611.5
2017-Oct-10 15:30N 52°04' E 003°45'510.4
2017-Oct-10 15:00N 52°03' E 003°53'7 7.4
2017-Oct-10 14:00N 51°59' E 004°04'4 8.5
2017-Oct-10 13:30N 51°57' E 004°09'3 5.0
2017-Oct-10 12:59N 51°55' E 004°12'0 0.0
2017-Oct-10 12:29N 51°55' E 004°12'0 0.0
2017-Oct-10 12:00N 51°55' E 004°12'0 0.0
2017-Oct-10 11:30N 51°55' E 004°12'0 0.0
2017-Oct-10 11:00N 51°55' E 004°12'0 0.0
2017-Oct-10 10:31N 51°55' E 004°12'0 0.0
2017-Oct-10 10:00N 51°55' E 004°12'0 0.0
2017-Oct-10 09:31N 51°55' E 004°12'0 0.0
2017-Oct-10 09:00N 51°55' E 004°12'0 0.0
2017-Oct-10 08:30N 51°55' E 004°12'0 0.0
2017-Oct-10 08:01N 51°55' E 004°12'0 0.0
2017-Oct-10 07:30N 51°55' E 004°12'0 0.0
2017-Oct-10 07:00N 51°55' E 004°12'0 0.0
2017-Oct-10 06:30N 51°55' E 004°12'0 0.0
2017-Oct-10 06:00N 51°55' E 004°12'0 0.0
2017-Oct-10 05:31N 51°55' E 004°12'0 0.0
2017-Oct-10 05:00N 51°55' E 004°12'0 0.0
2017-Oct-10 04:30N 51°55' E 004°12'0 0.0
2017-Oct-10 04:00N 51°55' E 004°12'0 0.0
2017-Oct-10 03:30N 51°55' E 004°12'0 0.0
2017-Oct-10 03:00N 51°55' E 004°12'0 0.0
2017-Oct-10 02:31N 51°55' E 004°12'0 0.0
2017-Oct-10 02:01N 51°55' E 004°12'0 0.0
2017-Oct-10 01:31N 51°55' E 004°12'0 0.0
2017-Oct-10 01:01N 51°55' E 004°12'0 0.0
2017-Oct-10 00:30N 51°55' E 004°12'0 0.0
2017-Oct-10 00:00N 51°55' E 004°12'0 0.0
2017-Oct-09 23:30N 51°55' E 004°12'0 0.0
2017-Oct-09 23:00N 51°55' E 004°12'0 0.0
2017-Oct-09 22:30N 51°55' E 004°12'0 0.0
2017-Oct-09 22:00N 51°55' E 004°12'0 0.0
2017-Oct-09 21:30N 51°55' E 004°12'0 0.0
2017-Oct-09 21:01N 51°55' E 004°12'0 0.0
2017-Oct-09 20:26N 51°55' E 004°12'0 0.0
2017-Oct-09 19:44N 51°55' E 004°12'0 0.0
2017-Oct-09 19:30N 51°55' E 004°12'0 0.5
2017-Oct-09 19:00N 51°55' E 004°12'1 3.0
2017-Oct-09 18:30N 51°56' E 004°11'3 6.9
2017-Oct-09 18:00N 51°58' E 004°06'4 8.6
2017-Oct-09 17:30N 51°60' E 003°60'510.5
2017-Oct-09 17:00N 52°01' E 003°51'4 6.8
2017-Oct-09 16:29N 52°01' E 003°46'  

Dump ship's entire track history